Platte, Nebraska
Current Conditions -  °F | °C
As of 9:30 PM on Saturday 22 Nov 2014 (Local Time) from KHSI Reporting Station
Haze Haze  
Wind Chill: 52°   Ceiling: 500
Heat Index: 52°   Visibility: 5mi
Dew Point: 49°   Wind: 14mph
Humidity: 89%   Direction: 190°S
Pressure: 29.54"   Gusts: 22mph
Location:  40.6115°N, 98.6672°W
Report Text: KHSI 230330Z AUTO 19012G19KT 5SM BR OVC005 11/09 A2954 RMK AO2 T01110094
Loading
Personal Weather Stations






























Interactive Weather Map New forecast layout! Learn more

10-Day Weather Forecast

Advertisements
Track Severe Weather on mobile